sensor_id;sensor_type;location;lat;lon;timestamp;P1;durP1;ratioP1;P2;durP2;ratioP2
31618;SDS011;18230;51.502;7.108;2023-09-30T00:00:49;22.88;;;6.82;;
31618;SDS011;18230;51.502;7.108;2023-09-30T00:05:50;18.02;;;5.88;;
31618;SDS011;18230;51.502;7.108;2023-09-30T00:10:51;25.40;;;5.80;;
31618;SDS011;18230;51.502;7.108;2023-09-30T00:15:53;21.92;;;5.50;;
31618;SDS011;18230;51.502;7.108;2023-09-30T00:20:53;19.17;;;6.43;;
31618;SDS011;18230;51.502;7.108;2023-09-30T00:25:54;21.33;;;6.60;;
31618;SDS011;18230;51.502;7.108;2023-09-30T00:30:55;24.83;;;6.78;;
31618;SDS011;18230;51.502;7.108;2023-09-30T00:35:56;27.27;;;6.45;;
31618;SDS011;18230;51.502;7.108;2023-09-30T00:40:57;25.75;;;6.55;;
31618;SDS011;18230;51.502;7.108;2023-09-30T00:46:01;22.95;;;6.30;;
31618;SDS011;18230;51.502;7.108;2023-09-30T00:51:06;27.60;;;6.38;;
31618;SDS011;18230;51.502;7.108;2023-09-30T00:56:07;21.83;;;7.45;;
31618;SDS011;18230;51.502;7.108;2023-09-30T01:01:08;21.33;;;7.20;;
31618;SDS011;18230;51.502;7.108;2023-09-30T01:06:09;22.63;;;6.85;;
31618;SDS011;18230;51.502;7.108;2023-09-30T01:11:10;29.35;;;7.30;;
31618;SDS011;18230;51.502;7.108;2023-09-30T01:16:11;24.73;;;6.53;;
31618;SDS011;18230;51.502;7.108;2023-09-30T01:21:12;19.90;;;6.68;;
31618;SDS011;18230;51.502;7.108;2023-09-30T01:26:13;27.63;;;6.78;;
31618;SDS011;18230;51.502;7.108;2023-09-30T01:31:14;23.50;;;6.53;;
31618;SDS011;18230;51.502;7.108;2023-09-30T01:36:15;28.55;;;6.72;;
31618;SDS011;18230;51.502;7.108;2023-09-30T01:41:17;19.33;;;6.60;;
31618;SDS011;18230;51.502;7.108;2023-09-30T01:46:18;28.17;;;7.13;;
31618;SDS011;18230;51.502;7.108;2023-09-30T01:51:19;24.67;;;6.75;;
31618;SDS011;18230;51.502;7.108;2023-09-30T01:56:19;18.40;;;5.95;;
31618;SDS011;18230;51.502;7.108;2023-09-30T02:01:20;24.67;;;6.82;;
31618;SDS011;18230;51.502;7.108;2023-09-30T02:06:21;23.75;;;5.95;;
31618;SDS011;18230;51.502;7.108;2023-09-30T02:11:21;21.33;;;6.97;;
31618;SDS011;18230;51.502;7.108;2023-09-30T02:16:22;23.67;;;6.75;;
31618;SDS011;18230;51.502;7.108;2023-09-30T02:21:23;23.70;;;6.28;;
31618;SDS011;18230;51.502;7.108;2023-09-30T02:26:23;20.45;;;6.45;;
31618;SDS011;18230;51.502;7.108;2023-09-30T02:31:25;22.20;;;6.57;;
31618;SDS011;18230;51.502;7.108;2023-09-30T02:36:26;24.35;;;6.53;;
31618;SDS011;18230;51.502;7.108;2023-09-30T02:41:27;24.88;;;6.43;;
31618;SDS011;18230;51.502;7.108;2023-09-30T02:46:28;23.42;;;6.88;;
31618;SDS011;18230;51.502;7.108;2023-09-30T02:51:28;21.73;;;7.28;;
31618;SDS011;18230;51.502;7.108;2023-09-30T02:56:30;21.20;;;6.65;;
31618;SDS011;18230;51.502;7.108;2023-09-30T03:01:31;28.52;;;6.68;;
31618;SDS011;18230;51.502;7.108;2023-09-30T03:06:31;27.58;;;7.03;;
31618;SDS011;18230;51.502;7.108;2023-09-30T03:11:32;18.80;;;5.78;;
31618;SDS011;18230;51.502;7.108;2023-09-30T03:16:34;21.40;;;6.20;;
31618;SDS011;18230;51.502;7.108;2023-09-30T03:21:38;15.23;;;5.78;;
31618;SDS011;18230;51.502;7.108;2023-09-30T03:26:39;29.25;;;6.57;;
31618;SDS011;18230;51.502;7.108;2023-09-30T03:31:41;25.40;;;7.03;;
31618;SDS011;18230;51.502;7.108;2023-09-30T03:36:42;27.85;;;7.22;;
31618;SDS011;18230;51.502;7.108;2023-09-30T03:41:44;23.02;;;7.30;;
31618;SDS011;18230;51.502;7.108;2023-09-30T03:46:44;20.98;;;6.30;;
31618;SDS011;18230;51.502;7.108;2023-09-30T03:51:45;25.27;;;6.55;;
31618;SDS011;18230;51.502;7.108;2023-09-30T03:56:47;18.63;;;5.95;;
31618;SDS011;18230;51.502;7.108;2023-09-30T04:01:48;30.30;;;6.65;;
31618;SDS011;18230;51.502;7.108;2023-09-30T04:06:49;22.90;;;6.78;;
31618;SDS011;18230;51.502;7.108;2023-09-30T04:11:51;23.95;;;5.70;;
31618;SDS011;18230;51.502;7.108;2023-09-30T04:16:52;17.80;;;6.05;;
31618;SDS011;18230;51.502;7.108;2023-09-30T04:21:54;21.75;;;5.90;;
31618;SDS011;18230;51.502;7.108;2023-09-30T04:26:54;18.95;;;6.38;;
31618;SDS011;18230;51.502;7.108;2023-09-30T04:37:02;24.90;;;6.43;;
31618;SDS011;18230;51.502;7.108;2023-09-30T04:42:03;36.63;;;11.13;;
31618;SDS011;18230;51.502;7.108;2023-09-30T04:47:04;26.25;;;7.95;;
31618;SDS011;18230;51.502;7.108;2023-09-30T04:52:05;26.77;;;11.13;;
31618;SDS011;18230;51.502;7.108;2023-09-30T04:57:08;19.10;;;7.65;;
31618;SDS011;18230;51.502;7.108;2023-09-30T05:02:08;26.08;;;8.02;;
31618;SDS011;18230;51.502;7.108;2023-09-30T05:07:10;22.48;;;7.93;;
31618;SDS011;18230;51.502;7.108;2023-09-30T05:12:13;24.73;;;7.70;;
31618;SDS011;18230;51.502;7.108;2023-09-30T05:17:13;28.60;;;8.27;;
31618;SDS011;18230;51.502;7.108;2023-09-30T05:22:14;29.10;;;8.18;;
31618;SDS011;18230;51.502;7.108;2023-09-30T05:27:15;26.15;;;7.13;;
31618;SDS011;18230;51.502;7.108;2023-09-30T05:32:16;27.98;;;7.70;;
31618;SDS011;18230;51.502;7.108;2023-09-30T05:37:18;27.90;;;8.57;;
31618;SDS011;18230;51.502;7.108;2023-09-30T05:42:21;31.60;;;8.57;;
31618;SDS011;18230;51.502;7.108;2023-09-30T05:47:22;22.88;;;8.25;;
31618;SDS011;18230;51.502;7.108;2023-09-30T05:52:23;27.75;;;8.93;;
31618;SDS011;18230;51.502;7.108;2023-09-30T05:57:24;32.33;;;9.57;;
31618;SDS011;18230;51.502;7.108;2023-09-30T06:02:24;24.90;;;8.40;;
31618;SDS011;18230;51.502;7.108;2023-09-30T06:07:25;26.77;;;7.75;;
31618;SDS011;18230;51.502;7.108;2023-09-30T06:12:26;31.65;;;10.35;;
31618;SDS011;18230;51.502;7.108;2023-09-30T06:17:26;23.77;;;9.15;;
31618;SDS011;18230;51.502;7.108;2023-09-30T06:22:27;24.70;;;8.45;;
31618;SDS011;18230;51.502;7.108;2023-09-30T06:27:28;29.52;;;10.48;;
31618;SDS011;18230;51.502;7.108;2023-09-30T06:32:28;28.95;;;9.27;;
31618;SDS011;18230;51.502;7.108;2023-09-30T06:37:29;20.77;;;8.05;;
31618;SDS011;18230;51.502;7.108;2023-09-30T06:42:30;29.35;;;9.38;;
31618;SDS011;18230;51.502;7.108;2023-09-30T06:47:34;23.13;;;9.07;;
31618;SDS011;18230;51.502;7.108;2023-09-30T06:52:37;27.83;;;9.65;;
31618;SDS011;18230;51.502;7.108;2023-09-30T06:57:39;24.40;;;9.10;;
31618;SDS011;18230;51.502;7.108;2023-09-30T07:02:43;22.30;;;8.80;;
31618;SDS011;18230;51.502;7.108;2023-09-30T07:07:44;22.85;;;9.45;;
31618;SDS011;18230;51.502;7.108;2023-09-30T07:12:45;21.30;;;8.77;;
31618;SDS011;18230;51.502;7.108;2023-09-30T07:17:45;24.90;;;8.90;;
31618;SDS011;18230;51.502;7.108;2023-09-30T07:22:47;27.60;;;9.00;;
31618;SDS011;18230;51.502;7.108;2023-09-30T07:27:48;28.30;;;9.40;;
31618;SDS011;18230;51.502;7.108;2023-09-30T07:32:49;25.05;;;8.52;;
31618;SDS011;18230;51.502;7.108;2023-09-30T07:37:50;24.85;;;8.25;;
31618;SDS011;18230;51.502;7.108;2023-09-30T07:42:53;18.75;;;8.05;;
31618;SDS011;18230;51.502;7.108;2023-09-30T07:47:54;23.80;;;7.97;;
31618;SDS011;18230;51.502;7.108;2023-09-30T07:52:55;22.55;;;8.52;;
31618;SDS011;18230;51.502;7.108;2023-09-30T07:57:56;23.95;;;7.88;;
31618;SDS011;18230;51.502;7.108;2023-09-30T08:02:59;24.67;;;7.45;;
31618;SDS011;18230;51.502;7.108;2023-09-30T08:08:02;22.38;;;7.57;;
31618;SDS011;18230;51.502;7.108;2023-09-30T08:13:03;26.58;;;8.18;;
31618;SDS011;18230;51.502;7.108;2023-09-30T08:18:04;20.52;;;6.68;;
31618;SDS011;18230;51.502;7.108;2023-09-30T08:23:06;23.05;;;7.05;;
31618;SDS011;18230;51.502;7.108;2023-09-30T08:28:06;15.13;;;6.25;;
31618;SDS011;18230;51.502;7.108;2023-09-30T08:33:09;20.42;;;5.95;;
31618;SDS011;18230;51.502;7.108;2023-09-30T08:38:10;20.10;;;6.63;;
31618;SDS011;18230;51.502;7.108;2023-09-30T08:43:11;18.85;;;6.15;;
31618;SDS011;18230;51.502;7.108;2023-09-30T08:48:12;24.88;;;6.28;;
31618;SDS011;18230;51.502;7.108;2023-09-30T08:53:13;22.58;;;7.10;;
31618;SDS011;18230;51.502;7.108;2023-09-30T08:58:16;19.20;;;5.60;;
31618;SDS011;18230;51.502;7.108;2023-09-30T09:03:18;16.33;;;5.70;;
31618;SDS011;18230;51.502;7.108;2023-09-30T09:08:20;23.40;;;6.32;;
31618;SDS011;18230;51.502;7.108;2023-09-30T09:13:24;16.70;;;5.47;;
31618;SDS011;18230;51.502;7.108;2023-09-30T09:18:31;19.52;;;5.50;;
31618;SDS011;18230;51.502;7.108;2023-09-30T09:23:36;16.08;;;5.82;;
31618;SDS011;18230;51.502;7.108;2023-09-30T09:28:43;14.32;;;5.18;;
31618;SDS011;18230;51.502;7.108;2023-09-30T09:33:43;12.40;;;5.10;;
31618;SDS011;18230;51.502;7.108;2023-09-30T09:38:44;15.07;;;5.43;;
31618;SDS011;18230;51.502;7.108;2023-09-30T09:43:48;12.27;;;4.82;;
31618;SDS011;18230;51.502;7.108;2023-09-30T09:48:50;13.63;;;5.40;;
31618;SDS011;18230;51.502;7.108;2023-09-30T09:53:52;14.20;;;4.68;;
31618;SDS011;18230;51.502;7.108;2023-09-30T09:58:55;16.98;;;4.97;;
31618;SDS011;18230;51.502;7.108;2023-09-30T10:03:56;14.95;;;4.68;;
31618;SDS011;18230;51.502;7.108;2023-09-30T10:08:56;12.52;;;4.80;;
31618;SDS011;18230;51.502;7.108;2023-09-30T10:13:59;13.10;;;4.18;;
31618;SDS011;18230;51.502;7.108;2023-09-30T10:19:15;14.02;;;4.45;;
31618;SDS011;18230;51.502;7.108;2023-09-30T10:29:22;14.30;;;4.07;;
31618;SDS011;18230;51.502;7.108;2023-09-30T10:34:49;9.23;;;3.95;;
31618;SDS011;18230;51.502;7.108;2023-09-30T10:39:53;13.73;;;4.18;;
31618;SDS011;18230;51.502;7.108;2023-09-30T10:44:54;11.98;;;3.85;;
31618;SDS011;18230;51.502;7.108;2023-09-30T10:49:55;7.50;;;3.35;;
31618;SDS011;18230;51.502;7.108;2023-09-30T10:55:01;12.65;;;4.20;;
31618;SDS011;18230;51.502;7.108;2023-09-30T11:00:10;11.25;;;3.47;;
31618;SDS011;18230;51.502;7.108;2023-09-30T11:05:11;13.98;;;3.47;;
31618;SDS011;18230;51.502;7.108;2023-09-30T11:10:19;9.18;;;3.60;;
31618;SDS011;18230;51.502;7.108;2023-09-30T11:15:20;11.50;;;3.08;;
31618;SDS011;18230;51.502;7.108;2023-09-30T11:20:21;10.25;;;3.70;;
31618;SDS011;18230;51.502;7.108;2023-09-30T11:25:22;8.18;;;3.38;;
31618;SDS011;18230;51.502;7.108;2023-09-30T11:30:24;12.38;;;4.30;;
31618;SDS011;18230;51.502;7.108;2023-09-30T11:35:26;9.57;;;3.78;;
31618;SDS011;18230;51.502;7.108;2023-09-30T11:40:28;8.30;;;3.25;;
31618;SDS011;18230;51.502;7.108;2023-09-30T11:45:28;8.20;;;3.03;;
31618;SDS011;18230;51.502;7.108;2023-09-30T11:50:44;11.35;;;3.30;;
31618;SDS011;18230;51.502;7.108;2023-09-30T11:55:46;10.70;;;3.75;;
31618;SDS011;18230;51.502;7.108;2023-09-30T12:00:46;7.80;;;3.47;;
31618;SDS011;18230;51.502;7.108;2023-09-30T12:05:50;9.25;;;3.28;;
31618;SDS011;18230;51.502;7.108;2023-09-30T12:10:51;9.73;;;3.58;;
31618;SDS011;18230;51.502;7.108;2023-09-30T12:15:52;11.50;;;3.28;;
31618;SDS011;18230;51.502;7.108;2023-09-30T12:20:53;8.65;;;3.22;;
31618;SDS011;18230;51.502;7.108;2023-09-30T12:25:54;9.07;;;3.13;;
31618;SDS011;18230;51.502;7.108;2023-09-30T12:30:54;9.38;;;4.05;;
31618;SDS011;18230;51.502;7.108;2023-09-30T12:35:55;7.25;;;3.05;;
31618;SDS011;18230;51.502;7.108;2023-09-30T12:40:56;10.45;;;3.22;;
31618;SDS011;18230;51.502;7.108;2023-09-30T12:45:58;17.70;;;4.20;;
31618;SDS011;18230;51.502;7.108;2023-09-30T12:50:59;8.57;;;3.75;;
31618;SDS011;18230;51.502;7.108;2023-09-30T12:56:00;8.60;;;3.45;;
31618;SDS011;18230;51.502;7.108;2023-09-30T13:01:01;11.32;;;3.90;;
31618;SDS011;18230;51.502;7.108;2023-09-30T13:06:02;11.23;;;3.85;;
31618;SDS011;18230;51.502;7.108;2023-09-30T13:11:03;10.25;;;3.60;;
31618;SDS011;18230;51.502;7.108;2023-09-30T13:16:04;6.97;;;3.17;;
31618;SDS011;18230;51.502;7.108;2023-09-30T13:21:05;11.23;;;3.45;;
31618;SDS011;18230;51.502;7.108;2023-09-30T13:26:06;8.48;;;3.53;;
31618;SDS011;18230;51.502;7.108;2023-09-30T13:31:07;12.48;;;3.45;;
31618;SDS011;18230;51.502;7.108;2023-09-30T13:36:08;9.10;;;3.15;;
31618;SDS011;18230;51.502;7.108;2023-09-30T13:41:09;10.05;;;3.53;;
31618;SDS011;18230;51.502;7.108;2023-09-30T13:46:09;9.70;;;3.50;;
31618;SDS011;18230;51.502;7.108;2023-09-30T13:51:10;9.25;;;3.30;;
31618;SDS011;18230;51.502;7.108;2023-09-30T13:56:11;8.32;;;2.97;;
31618;SDS011;18230;51.502;7.108;2023-09-30T14:01:14;7.45;;;3.40;;
31618;SDS011;18230;51.502;7.108;2023-09-30T14:06:15;8.80;;;3.60;;
31618;SDS011;18230;51.502;7.108;2023-09-30T14:11:16;9.82;;;3.45;;
31618;SDS011;18230;51.502;7.108;2023-09-30T14:16:16;10.32;;;2.83;;
31618;SDS011;18230;51.502;7.108;2023-09-30T14:21:17;6.45;;;2.78;;
31618;SDS011;18230;51.502;7.108;2023-09-30T14:26:18;6.55;;;2.95;;
31618;SDS011;18230;51.502;7.108;2023-09-30T14:31:19;9.00;;;3.47;;
31618;SDS011;18230;51.502;7.108;2023-09-30T14:36:19;10.80;;;3.65;;
31618;SDS011;18230;51.502;7.108;2023-09-30T14:41:20;11.82;;;3.40;;
31618;SDS011;18230;51.502;7.108;2023-09-30T14:46:21;10.00;;;3.72;;
31618;SDS011;18230;51.502;7.108;2023-09-30T14:51:24;11.50;;;3.88;;
31618;SDS011;18230;51.502;7.108;2023-09-30T14:56:25;12.40;;;3.30;;
31618;SDS011;18230;51.502;7.108;2023-09-30T15:01:26;8.20;;;3.88;;
31618;SDS011;18230;51.502;7.108;2023-09-30T15:06:26;9.90;;;3.67;;
31618;SDS011;18230;51.502;7.108;2023-09-30T15:11:28;10.85;;;3.08;;
31618;SDS011;18230;51.502;7.108;2023-09-30T15:16:29;8.95;;;3.67;;
31618;SDS011;18230;51.502;7.108;2023-09-30T15:21:30;13.20;;;3.75;;
31618;SDS011;18230;51.502;7.108;2023-09-30T15:26:30;11.50;;;3.60;;
31618;SDS011;18230;51.502;7.108;2023-09-30T15:31:31;8.50;;;3.22;;
31618;SDS011;18230;51.502;7.108;2023-09-30T15:36:32;8.98;;;3.25;;
31618;SDS011;18230;51.502;7.108;2023-09-30T15:41:33;7.20;;;3.40;;
31618;SDS011;18230;51.502;7.108;2023-09-30T15:46:34;9.23;;;3.80;;
31618;SDS011;18230;51.502;7.108;2023-09-30T15:51:34;8.90;;;3.20;;
31618;SDS011;18230;51.502;7.108;2023-09-30T15:56:35;10.55;;;3.60;;
31618;SDS011;18230;51.502;7.108;2023-09-30T16:01:36;8.25;;;2.75;;
31618;SDS011;18230;51.502;7.108;2023-09-30T16:06:36;7.55;;;3.47;;
31618;SDS011;18230;51.502;7.108;2023-09-30T16:11:39;7.40;;;3.10;;
31618;SDS011;18230;51.502;7.108;2023-09-30T16:16:40;7.72;;;3.38;;
31618;SDS011;18230;51.502;7.108;2023-09-30T16:21:41;15.32;;;3.63;;
31618;SDS011;18230;51.502;7.108;2023-09-30T16:26:41;8.30;;;3.40;;
31618;SDS011;18230;51.502;7.108;2023-09-30T16:31:42;9.65;;;3.60;;
31618;SDS011;18230;51.502;7.108;2023-09-30T16:36:42;12.32;;;4.03;;
31618;SDS011;18230;51.502;7.108;2023-09-30T16:41:43;9.02;;;3.78;;
31618;SDS011;18230;51.502;7.108;2023-09-30T16:46:44;10.80;;;4.97;;
31618;SDS011;18230;51.502;7.108;2023-09-30T16:51:44;11.45;;;4.32;;
31618;SDS011;18230;51.502;7.108;2023-09-30T16:56:45;10.32;;;4.63;;
31618;SDS011;18230;51.502;7.108;2023-09-30T17:01:45;8.75;;;4.32;;
31618;SDS011;18230;51.502;7.108;2023-09-30T17:06:46;9.85;;;4.97;;
31618;SDS011;18230;51.502;7.108;2023-09-30T17:11:47;17.52;;;7.95;;
31618;SDS011;18230;51.502;7.108;2023-09-30T17:16:47;11.90;;;5.47;;
31618;SDS011;18230;51.502;7.108;2023-09-30T17:21:48;11.88;;;5.80;;
31618;SDS011;18230;51.502;7.108;2023-09-30T17:26:49;12.18;;;5.32;;
31618;SDS011;18230;51.502;7.108;2023-09-30T17:31:49;13.65;;;6.57;;
31618;SDS011;18230;51.502;7.108;2023-09-30T17:36:50;10.95;;;5.72;;
31618;SDS011;18230;51.502;7.108;2023-09-30T17:41:50;10.80;;;5.82;;
31618;SDS011;18230;51.502;7.108;2023-09-30T17:46:51;14.23;;;5.82;;
31618;SDS011;18230;51.502;7.108;2023-09-30T17:51:52;11.05;;;4.75;;
31618;SDS011;18230;51.502;7.108;2023-09-30T17:56:52;11.20;;;5.43;;
31618;SDS011;18230;51.502;7.108;2023-09-30T18:01:53;11.68;;;5.60;;
31618;SDS011;18230;51.502;7.108;2023-09-30T18:06:54;13.65;;;7.68;;
31618;SDS011;18230;51.502;7.108;2023-09-30T18:11:54;11.80;;;5.68;;
31618;SDS011;18230;51.502;7.108;2023-09-30T18:16:55;12.68;;;5.95;;
31618;SDS011;18230;51.502;7.108;2023-09-30T18:21:56;15.52;;;5.40;;
31618;SDS011;18230;51.502;7.108;2023-09-30T18:26:57;13.45;;;6.15;;
31618;SDS011;18230;51.502;7.108;2023-09-30T18:31:58;18.50;;;6.72;;
31618;SDS011;18230;51.502;7.108;2023-09-30T18:36:59;11.68;;;6.15;;
31618;SDS011;18230;51.502;7.108;2023-09-30T18:42:00;19.95;;;9.57;;
31618;SDS011;18230;51.502;7.108;2023-09-30T18:47:01;16.55;;;7.63;;
31618;SDS011;18230;51.502;7.108;2023-09-30T18:52:02;16.17;;;8.35;;
31618;SDS011;18230;51.502;7.108;2023-09-30T18:57:02;15.15;;;7.28;;
31618;SDS011;18230;51.502;7.108;2023-09-30T19:02:03;19.20;;;8.23;;
31618;SDS011;18230;51.502;7.108;2023-09-30T19:07:03;16.35;;;8.40;;
31618;SDS011;18230;51.502;7.108;2023-09-30T19:12:05;13.90;;;6.38;;
31618;SDS011;18230;51.502;7.108;2023-09-30T19:17:06;13.43;;;6.53;;
31618;SDS011;18230;51.502;7.108;2023-09-30T19:22:06;10.70;;;5.82;;
31618;SDS011;18230;51.502;7.108;2023-09-30T19:27:07;15.30;;;7.03;;
31618;SDS011;18230;51.502;7.108;2023-09-30T19:32:08;12.32;;;5.85;;
31618;SDS011;18230;51.502;7.108;2023-09-30T19:37:09;13.65;;;6.05;;
31618;SDS011;18230;51.502;7.108;2023-09-30T19:42:10;10.73;;;5.65;;
31618;SDS011;18230;51.502;7.108;2023-09-30T19:47:10;12.70;;;5.18;;
31618;SDS011;18230;51.502;7.108;2023-09-30T19:52:11;14.98;;;5.80;;
31618;SDS011;18230;51.502;7.108;2023-09-30T19:57:12;13.75;;;6.13;;
31618;SDS011;18230;51.502;7.108;2023-09-30T20:02:12;14.68;;;6.18;;
31618;SDS011;18230;51.502;7.108;2023-09-30T20:07:16;14.18;;;6.28;;
31618;SDS011;18230;51.502;7.108;2023-09-30T20:12:16;12.10;;;5.57;;
31618;SDS011;18230;51.502;7.108;2023-09-30T20:17:17;12.82;;;5.43;;
31618;SDS011;18230;51.502;7.108;2023-09-30T20:22:18;17.73;;;5.95;;
31618;SDS011;18230;51.502;7.108;2023-09-30T20:27:19;15.48;;;6.93;;
31618;SDS011;18230;51.502;7.108;2023-09-30T20:32:20;14.85;;;6.35;;
31618;SDS011;18230;51.502;7.108;2023-09-30T20:37:20;14.77;;;6.72;;
31618;SDS011;18230;51.502;7.108;2023-09-30T20:42:21;11.75;;;6.78;;
31618;SDS011;18230;51.502;7.108;2023-09-30T20:47:21;16.00;;;8.45;;
31618;SDS011;18230;51.502;7.108;2023-09-30T20:52:23;12.90;;;6.78;;
31618;SDS011;18230;51.502;7.108;2023-09-30T20:57:23;14.07;;;6.85;;
31618;SDS011;18230;51.502;7.108;2023-09-30T21:02:24;14.07;;;7.38;;
31618;SDS011;18230;51.502;7.108;2023-09-30T21:07:25;13.38;;;7.45;;
31618;SDS011;18230;51.502;7.108;2023-09-30T21:12:26;18.83;;;6.70;;
31618;SDS011;18230;51.502;7.108;2023-09-30T21:17:26;15.68;;;6.65;;
31618;SDS011;18230;51.502;7.108;2023-09-30T21:22:28;17.00;;;7.45;;
31618;SDS011;18230;51.502;7.108;2023-09-30T21:27:29;14.75;;;7.68;;
31618;SDS011;18230;51.502;7.108;2023-09-30T21:32:30;12.75;;;6.40;;
31618;SDS011;18230;51.502;7.108;2023-09-30T21:37:30;20.50;;;8.65;;
31618;SDS011;18230;51.502;7.108;2023-09-30T21:42:34;14.32;;;7.22;;
31618;SDS011;18230;51.502;7.108;2023-09-30T21:47:34;13.15;;;6.72;;
31618;SDS011;18230;51.502;7.108;2023-09-30T21:52:35;16.90;;;7.80;;
31618;SDS011;18230;51.502;7.108;2023-09-30T21:57:35;16.75;;;6.57;;
31618;SDS011;18230;51.502;7.108;2023-09-30T22:02:36;15.45;;;6.97;;
31618;SDS011;18230;51.502;7.108;2023-09-30T22:07:39;14.43;;;7.05;;
31618;SDS011;18230;51.502;7.108;2023-09-30T22:12:40;18.90;;;7.75;;
31618;SDS011;18230;51.502;7.108;2023-09-30T22:17:42;12.85;;;6.82;;
31618;SDS011;18230;51.502;7.108;2023-09-30T22:22:42;12.77;;;6.55;;
31618;SDS011;18230;51.502;7.108;2023-09-30T22:27:43;16.20;;;7.22;;
31618;SDS011;18230;51.502;7.108;2023-09-30T22:32:43;13.52;;;7.68;;
31618;SDS011;18230;51.502;7.108;2023-09-30T22:37:44;12.68;;;6.95;;
31618;SDS011;18230;51.502;7.108;2023-09-30T22:42:45;15.57;;;7.43;;
31618;SDS011;18230;51.502;7.108;2023-09-30T22:47:50;11.75;;;7.55;;
31618;SDS011;18230;51.502;7.108;2023-09-30T22:52:52;12.77;;;7.03;;
31618;SDS011;18230;51.502;7.108;2023-09-30T22:57:55;15.73;;;7.63;;
31618;SDS011;18230;51.502;7.108;2023-09-30T23:02:56;19.33;;;9.55;;
31618;SDS011;18230;51.502;7.108;2023-09-30T23:08:00;13.55;;;8.38;;
31618;SDS011;18230;51.502;7.108;2023-09-30T23:13:01;15.30;;;8.60;;
31618;SDS011;18230;51.502;7.108;2023-09-30T23:18:01;15.38;;;7.97;;
31618;SDS011;18230;51.502;7.108;2023-09-30T23:23:02;14.60;;;8.20;;
31618;SDS011;18230;51.502;7.108;2023-09-30T23:28:04;15.68;;;7.78;;
31618;SDS011;18230;51.502;7.108;2023-09-30T23:33:06;14.30;;;8.60;;
31618;SDS011;18230;51.502;7.108;2023-09-30T23:38:07;16.17;;;9.13;;
31618;SDS011;18230;51.502;7.108;2023-09-30T23:43:08;15.35;;;7.95;;
31618;SDS011;18230;51.502;7.108;2023-09-30T23:48:09;13.40;;;7.68;;
31618;SDS011;18230;51.502;7.108;2023-09-30T23:53:10;15.55;;;7.53;;
31618;SDS011;18230;51.502;7.108;2023-09-30T23:58:11;18.52;;;8.73;;
